Sugarloaf, California
Current Conditions -  °F | °C
As of 2:55 PM on Saturday 25 Oct 2014 (Local Time) from KL35 Reporting Station
Scattered Clouds Scattered Clouds  
Wind Chill: 61°   Ceiling: Unl
Heat Index: 61°   Visibility: 10mi
Dew Point: 39°   Wind: 7mph
Humidity: 45%   Direction: 210°SSW
Pressure: 30.27"   Gusts: 17mph
Location:  34.24°N, 116.82°W
Report Text: KL35 252155Z AUTO 21006G15KT 10SM SCT042 16/04 A3027 RMK AO2
Loading
Personal Weather Stations






























Interactive Weather Map New forecast layout! Learn more

10-Day Weather Forecast

Advertisements
Track Severe Weather on mobile